Terminal Aerodrome Forecast
Issued by NWS Omaha/Valley, NE

Home | Current Version | Previous Version | Graphics & Text | Print | Product List | Glossary On
Versions: 1 2 3 4 5 6 7 8 9 10 11 12 13 14 15 16 17 18 19 20 21 22 23 24 25 26 27 28 29 30 31 32 33 34 35 36 37 38 39 40 41 42
000
FTUS43 KOAX 262327
TAFOFK
TAF
KOFK 262327Z 2700/2724 08007KT P6SM SCT100
     FM270500 12005KT P6SM -SHRA OVC070
      TEMPO 2706/2710 3SM TSRA BR OVC025CB
     FM271000 12005KT P6SM -SHRA OVC015
      TEMPO 2710/2713 2SM -SHRA BR OVC007
     FM271300 10005KT 3SM BR OVC007
     FM271600 12007KT P6SM OVC015=

USA.gov is the U.S. government's official web portal to all federal, state and local government web resources and services.